sensor_id;sensor_type;location;lat;lon;timestamp;P1;P2;P0
61804;PMS7003;47725;47.912;7.356;2024-01-30T00:03:40;43.41;35.86;
61804;PMS7003;47725;47.912;7.356;2024-01-30T00:07:40;56.72;45.38;
61804;PMS7003;47725;47.912;7.356;2024-01-30T00:11:40;56.72;45.38;
61804;PMS7003;47725;47.912;7.356;2024-01-30T00:15:40;56.72;45.38;
61804;PMS7003;47725;47.912;7.356;2024-01-30T00:19:40;42.52;37.80;
61804;PMS7003;47725;47.912;7.356;2024-01-30T00:23:40;42.52;37.80;
61804;PMS7003;47725;47.912;7.356;2024-01-30T00:27:40;52.89;41.56;
61804;PMS7003;47725;47.912;7.356;2024-01-30T00:31:40;52.89;41.56;
61804;PMS7003;47725;47.912;7.356;2024-01-30T00:35:40;52.89;41.56;
61804;PMS7003;47725;47.912;7.356;2024-01-30T00:39:40;40.79;36.05;
61804;PMS7003;47725;47.912;7.356;2024-01-30T00:43:40;40.79;36.05;
61804;PMS7003;47725;47.912;7.356;2024-01-30T00:47:40;46.23;35.86;
61804;PMS7003;47725;47.912;7.356;2024-01-30T00:51:40;46.23;35.86;
61804;PMS7003;47725;47.912;7.356;2024-01-30T00:55:40;46.23;35.86;
61804;PMS7003;47725;47.912;7.356;2024-01-30T00:59:40;48.33;36.96;
61804;PMS7003;47725;47.912;7.356;2024-01-30T01:03:40;48.33;36.96;
61804;PMS7003;47725;47.912;7.356;2024-01-30T01:07:40;45.70;37.13;
61804;PMS7003;47725;47.912;7.356;2024-01-30T01:11:40;45.70;37.13;
61804;PMS7003;47725;47.912;7.356;2024-01-30T01:15:40;45.70;37.13;
61804;PMS7003;47725;47.912;7.356;2024-01-30T01:19:40;58.04;44.72;
61804;PMS7003;47725;47.912;7.356;2024-01-30T01:23:40;58.04;44.72;
61804;PMS7003;47725;47.912;7.356;2024-01-30T01:27:40;38.67;33.95;
61804;PMS7003;47725;47.912;7.356;2024-01-30T01:31:40;38.67;33.95;
61804;PMS7003;47725;47.912;7.356;2024-01-30T01:35:40;38.67;33.95;
61804;PMS7003;47725;47.912;7.356;2024-01-30T01:39:40;38.51;33.81;
61804;PMS7003;47725;47.912;7.356;2024-01-30T01:43:40;38.51;33.81;
61804;PMS7003;47725;47.912;7.356;2024-01-30T01:47:40;38.30;34.56;
61804;PMS7003;47725;47.912;7.356;2024-01-30T01:51:40;38.30;34.56;
61804;PMS7003;47725;47.912;7.356;2024-01-30T01:55:40;38.30;34.56;
61804;PMS7003;47725;47.912;7.356;2024-01-30T01:59:40;50.44;38.30;
61804;PMS7003;47725;47.912;7.356;2024-01-30T02:03:40;50.44;38.30;
61804;PMS7003;47725;47.912;7.356;2024-01-30T02:07:40;35.59;33.72;
61804;PMS7003;47725;47.912;7.356;2024-01-30T02:11:40;35.59;33.72;
61804;PMS7003;47725;47.912;7.356;2024-01-30T02:15:40;35.59;33.72;
61804;PMS7003;47725;47.912;7.356;2024-01-30T02:19:40;46.99;38.53;
61804;PMS7003;47725;47.912;7.356;2024-01-30T02:23:40;46.99;38.53;
61804;PMS7003;47725;47.912;7.356;2024-01-30T02:27:40;40.59;36.81;
61804;PMS7003;47725;47.912;7.356;2024-01-30T02:31:40;40.59;36.81;
61804;PMS7003;47725;47.912;7.356;2024-01-30T02:35:40;40.59;36.81;
61804;PMS7003;47725;47.912;7.356;2024-01-30T02:39:40;41.62;36.89;
61804;PMS7003;47725;47.912;7.356;2024-01-30T02:43:40;41.62;36.89;
61804;PMS7003;47725;47.912;7.356;2024-01-30T02:47:40;44.57;36.03;
61804;PMS7003;47725;47.912;7.356;2024-01-30T02:51:40;44.57;36.03;
61804;PMS7003;47725;47.912;7.356;2024-01-30T02:55:40;44.57;36.03;
61804;PMS7003;47725;47.912;7.356;2024-01-30T02:59:40;36.88;31.20;
61804;PMS7003;47725;47.912;7.356;2024-01-30T03:03:40;36.88;31.20;
61804;PMS7003;47725;47.912;7.356;2024-01-30T03:07:40;28.36;28.36;
61804;PMS7003;47725;47.912;7.356;2024-01-30T03:11:40;28.36;28.36;
61804;PMS7003;47725;47.912;7.356;2024-01-30T03:15:40;28.36;28.36;
61804;PMS7003;47725;47.912;7.356;2024-01-30T03:19:40;34.91;33.96;
61804;PMS7003;47725;47.912;7.356;2024-01-30T03:23:39;34.91;33.96;
61804;PMS7003;47725;47.912;7.356;2024-01-30T03:27:39;38.67;30.18;
61804;PMS7003;47725;47.912;7.356;2024-01-30T03:31:40;38.67;30.18;
61804;PMS7003;47725;47.912;7.356;2024-01-30T03:35:39;38.67;30.18;
61804;PMS7003;47725;47.912;7.356;2024-01-30T03:39:39;26.31;24.43;
61804;PMS7003;47725;47.912;7.356;2024-01-30T03:43:40;26.31;24.43;
61804;PMS7003;47725;47.912;7.356;2024-01-30T03:47:39;25.34;24.40;
61804;PMS7003;47725;47.912;7.356;2024-01-30T03:51:39;25.34;24.40;
61804;PMS7003;47725;47.912;7.356;2024-01-30T03:55:39;25.34;24.40;
61804;PMS7003;47725;47.912;7.356;2024-01-30T03:59:41;28.36;24.58;
61804;PMS7003;47725;47.912;7.356;2024-01-30T04:03:40;28.36;24.58;
61804;PMS7003;47725;47.912;7.356;2024-01-30T04:07:39;34.76;31.00;
61804;PMS7003;47725;47.912;7.356;2024-01-30T04:11:40;34.76;31.00;
61804;PMS7003;47725;47.912;7.356;2024-01-30T04:15:39;34.76;31.00;
61804;PMS7003;47725;47.912;7.356;2024-01-30T04:19:40;39.58;32.99;
61804;PMS7003;47725;47.912;7.356;2024-01-30T04:23:40;39.58;32.99;
61804;PMS7003;47725;47.912;7.356;2024-01-30T04:27:39;34.83;28.24;
61804;PMS7003;47725;47.912;7.356;2024-01-30T04:31:39;34.83;28.24;
61804;PMS7003;47725;47.912;7.356;2024-01-30T04:35:39;34.83;28.24;
61804;PMS7003;47725;47.912;7.356;2024-01-30T04:39:39;40.80;31.31;
61804;PMS7003;47725;47.912;7.356;2024-01-30T04:43:39;40.80;31.31;
61804;PMS7003;47725;47.912;7.356;2024-01-30T04:47:39;43.64;38.90;
61804;PMS7003;47725;47.912;7.356;2024-01-30T04:51:39;43.64;38.90;
61804;PMS7003;47725;47.912;7.356;2024-01-30T04:55:40;43.64;38.90;
61804;PMS7003;47725;47.912;7.356;2024-01-30T04:59:39;43.43;36.82;
61804;PMS7003;47725;47.912;7.356;2024-01-30T05:03:39;43.43;36.82;
61804;PMS7003;47725;47.912;7.356;2024-01-30T05:07:41;28.37;25.53;
61804;PMS7003;47725;47.912;7.356;2024-01-30T05:11:40;28.37;25.53;
61804;PMS7003;47725;47.912;7.356;2024-01-30T05:15:39;28.37;25.53;
61804;PMS7003;47725;47.912;7.356;2024-01-30T05:19:39;35.05;33.15;
61804;PMS7003;47725;47.912;7.356;2024-01-30T05:23:39;35.05;33.15;
61804;PMS7003;47725;47.912;7.356;2024-01-30T05:27:39;42.51;34.95;
61804;PMS7003;47725;47.912;7.356;2024-01-30T05:31:39;42.51;34.95;
61804;PMS7003;47725;47.912;7.356;2024-01-30T05:35:40;42.51;34.95;
61804;PMS7003;47725;47.912;7.356;2024-01-30T05:39:39;41.60;34.03;
61804;PMS7003;47725;47.912;7.356;2024-01-30T05:43:39;41.60;34.03;
61804;PMS7003;47725;47.912;7.356;2024-01-30T05:47:39;35.99;27.47;
61804;PMS7003;47725;47.912;7.356;2024-01-30T05:51:39;35.99;27.47;
61804;PMS7003;47725;47.912;7.356;2024-01-30T05:55:40;35.99;27.47;
61804;PMS7003;47725;47.912;7.356;2024-01-30T05:59:39;32.13;28.35;
61804;PMS7003;47725;47.912;7.356;2024-01-30T06:03:39;32.13;28.35;
61804;PMS7003;47725;47.912;7.356;2024-01-30T06:07:39;39.86;29.42;
61804;PMS7003;47725;47.912;7.356;2024-01-30T06:11:39;39.86;29.42;
61804;PMS7003;47725;47.912;7.356;2024-01-30T06:15:39;39.86;29.42;
61804;PMS7003;47725;47.912;7.356;2024-01-30T06:19:39;45.39;34.99;
61804;PMS7003;47725;47.912;7.356;2024-01-30T06:23:39;45.39;34.99;
61804;PMS7003;47725;47.912;7.356;2024-01-30T06:27:39;33.08;29.30;
61804;PMS7003;47725;47.912;7.356;2024-01-30T06:31:40;33.08;29.30;
61804;PMS7003;47725;47.912;7.356;2024-01-30T06:35:40;33.08;29.30;
61804;PMS7003;47725;47.912;7.356;2024-01-30T06:39:39;28.11;24.36;
61804;PMS7003;47725;47.912;7.356;2024-01-30T06:43:39;28.11;24.36;
61804;PMS7003;47725;47.912;7.356;2024-01-30T06:47:39;27.32;27.32;
61804;PMS7003;47725;47.912;7.356;2024-01-30T06:51:39;27.32;27.32;
61804;PMS7003;47725;47.912;7.356;2024-01-30T06:55:39;27.32;27.32;
61804;PMS7003;47725;47.912;7.356;2024-01-30T06:59:39;36.62;31.93;
61804;PMS7003;47725;47.912;7.356;2024-01-30T07:03:39;36.62;31.93;
61804;PMS7003;47725;47.912;7.356;2024-01-30T07:07:39;33.76;30.94;
61804;PMS7003;47725;47.912;7.356;2024-01-30T07:11:39;33.76;30.94;
61804;PMS7003;47725;47.912;7.356;2024-01-30T07:15:39;33.76;30.94;
61804;PMS7003;47725;47.912;7.356;2024-01-30T07:19:39;42.93;31.73;
61804;PMS7003;47725;47.912;7.356;2024-01-30T07:23:39;42.93;31.73;
61804;PMS7003;47725;47.912;7.356;2024-01-30T07:27:39;34.64;30.99;
61804;PMS7003;47725;47.912;7.356;2024-01-30T07:31:39;34.64;30.99;
61804;PMS7003;47725;47.912;7.356;2024-01-30T07:35:39;34.64;30.99;
61804;PMS7003;47725;47.912;7.356;2024-01-30T07:39:39;42.49;36.03;
61804;PMS7003;47725;47.912;7.356;2024-01-30T07:43:39;42.49;36.03;
61804;PMS7003;47725;47.912;7.356;2024-01-30T07:47:39;34.91;29.40;
61804;PMS7003;47725;47.912;7.356;2024-01-30T07:51:39;34.91;29.40;
61804;PMS7003;47725;47.912;7.356;2024-01-30T07:55:39;34.91;29.40;
61804;PMS7003;47725;47.912;7.356;2024-01-30T07:59:39;34.64;30.99;
61804;PMS7003;47725;47.912;7.356;2024-01-30T08:03:42;34.64;30.99;
61804;PMS7003;47725;47.912;7.356;2024-01-30T08:07:39;36.54;33.80;
61804;PMS7003;47725;47.912;7.356;2024-01-30T08:11:39;36.54;33.80;
61804;PMS7003;47725;47.912;7.356;2024-01-30T08:15:39;36.54;33.80;
61804;PMS7003;47725;47.912;7.356;2024-01-30T08:19:39;36.37;35.46;
61804;PMS7003;47725;47.912;7.356;2024-01-30T08:23:39;36.37;35.46;
61804;PMS7003;47725;47.912;7.356;2024-01-30T08:27:39;36.07;31.56;
61804;PMS7003;47725;47.912;7.356;2024-01-30T08:31:39;36.07;31.56;
61804;PMS7003;47725;47.912;7.356;2024-01-30T08:35:39;36.07;31.56;
61804;PMS7003;47725;47.912;7.356;2024-01-30T08:39:39;33.55;32.67;
61804;PMS7003;47725;47.912;7.356;2024-01-30T08:43:39;33.55;32.67;
61804;PMS7003;47725;47.912;7.356;2024-01-30T08:47:40;43.06;32.30;
61804;PMS7003;47725;47.912;7.356;2024-01-30T08:51:39;43.06;32.30;
61804;PMS7003;47725;47.912;7.356;2024-01-30T08:55:39;43.06;32.30;
61804;PMS7003;47725;47.912;7.356;2024-01-30T08:59:39;43.43;34.38;
61804;PMS7003;47725;47.912;7.356;2024-01-30T09:03:39;43.43;34.38;
61804;PMS7003;47725;47.912;7.356;2024-01-30T09:07:39;35.16;30.65;
61804;PMS7003;47725;47.912;7.356;2024-01-30T09:11:39;35.16;30.65;
61804;PMS7003;47725;47.912;7.356;2024-01-30T09:15:39;35.16;30.65;
61804;PMS7003;47725;47.912;7.356;2024-01-30T09:19:40;37.85;33.24;
61804;PMS7003;47725;47.912;7.356;2024-01-30T09:23:39;37.85;33.24;
61804;PMS7003;47725;47.912;7.356;2024-01-30T09:27:39;32.40;26.84;
61804;PMS7003;47725;47.912;7.356;2024-01-30T09:31:39;32.40;26.84;
61804;PMS7003;47725;47.912;7.356;2024-01-30T09:35:39;32.40;26.84;
61804;PMS7003;47725;47.912;7.356;2024-01-30T09:39:39;33.65;29.91;
61804;PMS7003;47725;47.912;7.356;2024-01-30T09:43:39;33.65;29.91;
61804;PMS7003;47725;47.912;7.356;2024-01-30T09:47:42;43.13;35.63;
61804;PMS7003;47725;47.912;7.356;2024-01-30T09:51:39;43.13;35.63;
61804;PMS7003;47725;47.912;7.356;2024-01-30T09:55:39;43.13;35.63;
61804;PMS7003;47725;47.912;7.356;2024-01-30T09:59:41;38.60;31.07;
61804;PMS7003;47725;47.912;7.356;2024-01-30T10:03:39;38.60;31.07;
61804;PMS7003;47725;47.912;7.356;2024-01-30T10:07:39;32.78;29.04;
61804;PMS7003;47725;47.912;7.356;2024-01-30T10:11:39;32.78;29.04;
61804;PMS7003;47725;47.912;7.356;2024-01-30T10:15:39;32.78;29.04;
61804;PMS7003;47725;47.912;7.356;2024-01-30T10:19:39;26.59;22.79;
61804;PMS7003;47725;47.912;7.356;2024-01-30T10:23:39;26.59;22.79;
61804;PMS7003;47725;47.912;7.356;2024-01-30T10:27:39;19.21;18.25;
61804;PMS7003;47725;47.912;7.356;2024-01-30T10:31:39;19.21;18.25;
61804;PMS7003;47725;47.912;7.356;2024-01-30T10:35:39;19.21;18.25;
61804;PMS7003;47725;47.912;7.356;2024-01-30T10:39:39;23.17;19.31;
61804;PMS7003;47725;47.912;7.356;2024-01-30T10:43:41;23.17;19.31;
61804;PMS7003;47725;47.912;7.356;2024-01-30T10:47:39;26.18;22.31;
61804;PMS7003;47725;47.912;7.356;2024-01-30T10:51:39;26.18;22.31;
61804;PMS7003;47725;47.912;7.356;2024-01-30T10:55:39;26.18;22.31;
61804;PMS7003;47725;47.912;7.356;2024-01-30T10:59:39;17.44;14.54;
61804;PMS7003;47725;47.912;7.356;2024-01-30T11:03:39;17.44;14.54;
61804;PMS7003;47725;47.912;7.356;2024-01-30T11:07:39;18.30;16.37;
61804;PMS7003;47725;47.912;7.356;2024-01-30T11:15:39;18.30;16.37;
61804;PMS7003;47725;47.912;7.356;2024-01-30T11:19:39;18.38;13.54;
61804;PMS7003;47725;47.912;7.356;2024-01-30T11:23:39;18.38;13.54;
61804;PMS7003;47725;47.912;7.356;2024-01-30T11:27:39;21.22;17.36;
61804;PMS7003;47725;47.912;7.356;2024-01-30T11:31:39;21.22;17.36;
61804;PMS7003;47725;47.912;7.356;2024-01-30T11:35:42;21.22;17.36;
61804;PMS7003;47725;47.912;7.356;2024-01-30T11:39:39;18.47;16.52;
61804;PMS7003;47725;47.912;7.356;2024-01-30T11:43:39;18.47;16.52;
61804;PMS7003;47725;47.912;7.356;2024-01-30T11:47:39;8.84;8.84;
61804;PMS7003;47725;47.912;7.356;2024-01-30T11:51:39;8.84;8.84;
61804;PMS7003;47725;47.912;7.356;2024-01-30T11:55:39;8.84;8.84;
61804;PMS7003;47725;47.912;7.356;2024-01-30T11:59:39;8.86;8.86;
61804;PMS7003;47725;47.912;7.356;2024-01-30T12:03:39;8.86;8.86;
61804;PMS7003;47725;47.912;7.356;2024-01-30T12:07:39;9.86;8.88;
61804;PMS7003;47725;47.912;7.356;2024-01-30T12:11:48;9.86;8.88;
61804;PMS7003;47725;47.912;7.356;2024-01-30T12:15:39;9.86;8.88;
61804;PMS7003;47725;47.912;7.356;2024-01-30T12:19:39;7.92;6.93;
61804;PMS7003;47725;47.912;7.356;2024-01-30T12:23:39;7.92;6.93;
61804;PMS7003;47725;47.912;7.356;2024-01-30T12:27:39;6.91;6.91;
61804;PMS7003;47725;47.912;7.356;2024-01-30T12:31:39;6.91;6.91;
61804;PMS7003;47725;47.912;7.356;2024-01-30T12:35:39;6.91;6.91;
61804;PMS7003;47725;47.912;7.356;2024-01-30T12:39:39;7.91;6.92;
61804;PMS7003;47725;47.912;7.356;2024-01-30T12:43:39;7.91;6.92;
61804;PMS7003;47725;47.912;7.356;2024-01-30T12:47:39;9.90;8.91;
61804;PMS7003;47725;47.912;7.356;2024-01-30T12:51:39;9.90;8.91;
61804;PMS7003;47725;47.912;7.356;2024-01-30T12:55:39;9.90;8.91;
61804;PMS7003;47725;47.912;7.356;2024-01-30T12:59:39;9.89;7.91;
61804;PMS7003;47725;47.912;7.356;2024-01-30T13:03:39;9.89;7.91;
61804;PMS7003;47725;47.912;7.356;2024-01-30T13:07:39;13.87;10.89;
61804;PMS7003;47725;47.912;7.356;2024-01-30T13:11:39;13.87;10.89;
61804;PMS7003;47725;47.912;7.356;2024-01-30T13:15:39;13.87;10.89;
61804;PMS7003;47725;47.912;7.356;2024-01-30T13:19:39;7.92;7.92;
61804;PMS7003;47725;47.912;7.356;2024-01-30T13:23:39;7.92;7.92;
61804;PMS7003;47725;47.912;7.356;2024-01-30T13:27:39;10.90;9.91;
61804;PMS7003;47725;47.912;7.356;2024-01-30T13:31:39;10.90;9.91;
61804;PMS7003;47725;47.912;7.356;2024-01-30T13:35:39;10.90;9.91;
61804;PMS7003;47725;47.912;7.356;2024-01-30T13:39:39;7.93;7.93;
61804;PMS7003;47725;47.912;7.356;2024-01-30T13:43:39;7.93;7.93;
61804;PMS7003;47725;47.912;7.356;2024-01-30T13:47:39;8.92;7.93;
61804;PMS7003;47725;47.912;7.356;2024-01-30T13:51:39;8.92;7.93;
61804;PMS7003;47725;47.912;7.356;2024-01-30T13:55:39;8.92;7.93;
61804;PMS7003;47725;47.912;7.356;2024-01-30T13:59:39;7.93;7.93;
61804;PMS7003;47725;47.912;7.356;2024-01-30T14:03:39;7.93;7.93;
61804;PMS7003;47725;47.912;7.356;2024-01-30T14:07:39;8.91;8.91;
61804;PMS7003;47725;47.912;7.356;2024-01-30T14:11:39;8.91;8.91;
61804;PMS7003;47725;47.912;7.356;2024-01-30T14:15:39;8.91;8.91;
61804;PMS7003;47725;47.912;7.356;2024-01-30T14:19:39;9.91;8.91;
61804;PMS7003;47725;47.912;7.356;2024-01-30T14:23:39;9.91;8.91;
61804;PMS7003;47725;47.912;7.356;2024-01-30T14:27:39;8.93;7.94;
61804;PMS7003;47725;47.912;7.356;2024-01-30T14:31:39;8.93;7.94;
61804;PMS7003;47725;47.912;7.356;2024-01-30T14:35:39;8.93;7.94;
61804;PMS7003;47725;47.912;7.356;2024-01-30T14:39:39;7.93;7.93;
61804;PMS7003;47725;47.912;7.356;2024-01-30T14:43:38;7.93;7.93;
61804;PMS7003;47725;47.912;7.356;2024-01-30T14:47:38;9.90;8.91;
61804;PMS7003;47725;47.912;7.356;2024-01-30T14:51:38;9.90;8.91;
61804;PMS7003;47725;47.912;7.356;2024-01-30T14:55:38;9.90;8.91;
61804;PMS7003;47725;47.912;7.356;2024-01-30T14:59:38;8.88;7.90;
61804;PMS7003;47725;47.912;7.356;2024-01-30T15:03:38;8.88;7.90;
61804;PMS7003;47725;47.912;7.356;2024-01-30T15:07:39;10.89;8.91;
61804;PMS7003;47725;47.912;7.356;2024-01-30T15:11:38;10.89;8.91;
61804;PMS7003;47725;47.912;7.356;2024-01-30T15:15:38;10.89;8.91;
61804;PMS7003;47725;47.912;7.356;2024-01-30T15:19:38;12.86;12.86;
61804;PMS7003;47725;47.912;7.356;2024-01-30T15:23:38;12.86;12.86;
61804;PMS7003;47725;47.912;7.356;2024-01-30T15:27:38;12.88;9.91;
61804;PMS7003;47725;47.912;7.356;2024-01-30T15:31:38;12.88;9.91;
61804;PMS7003;47725;47.912;7.356;2024-01-30T15:35:38;12.88;9.91;
61804;PMS7003;47725;47.912;7.356;2024-01-30T15:39:38;12.86;9.89;
61804;PMS7003;47725;47.912;7.356;2024-01-30T15:43:38;12.86;9.89;
61804;PMS7003;47725;47.912;7.356;2024-01-30T15:47:38;7.88;7.88;
61804;PMS7003;47725;47.912;7.356;2024-01-30T15:51:38;7.88;7.88;
61804;PMS7003;47725;47.912;7.356;2024-01-30T15:55:38;7.88;7.88;
61804;PMS7003;47725;47.912;7.356;2024-01-30T15:59:38;13.78;13.78;
61804;PMS7003;47725;47.912;7.356;2024-01-30T16:03:38;13.78;13.78;
61804;PMS7003;47725;47.912;7.356;2024-01-30T16:07:38;13.70;12.72;
61804;PMS7003;47725;47.912;7.356;2024-01-30T16:11:38;13.70;12.72;
61804;PMS7003;47725;47.912;7.356;2024-01-30T16:15:38;13.70;12.72;
61804;PMS7003;47725;47.912;7.356;2024-01-30T16:19:38;27.35;27.35;
61804;PMS7003;47725;47.912;7.356;2024-01-30T16:23:38;27.35;27.35;
61804;PMS7003;47725;47.912;7.356;2024-01-30T16:27:38;32.03;29.11;
61804;PMS7003;47725;47.912;7.356;2024-01-30T16:31:38;32.03;29.11;
61804;PMS7003;47725;47.912;7.356;2024-01-30T16:35:38;32.03;29.11;
61804;PMS7003;47725;47.912;7.356;2024-01-30T16:39:38;46.92;40.07;
61804;PMS7003;47725;47.912;7.356;2024-01-30T16:43:38;46.92;40.07;
61804;PMS7003;47725;47.912;7.356;2024-01-30T16:47:38;47.60;34.97;
61804;PMS7003;47725;47.912;7.356;2024-01-30T16:51:38;47.60;34.97;
61804;PMS7003;47725;47.912;7.356;2024-01-30T16:55:38;47.60;34.97;
61804;PMS7003;47725;47.912;7.356;2024-01-30T16:59:38;44.74;38.90;
61804;PMS7003;47725;47.912;7.356;2024-01-30T17:03:39;44.74;38.90;
61804;PMS7003;47725;47.912;7.356;2024-01-30T17:07:38;43.40;37.61;
61804;PMS7003;47725;47.912;7.356;2024-01-30T17:11:38;43.40;37.61;
61804;PMS7003;47725;47.912;7.356;2024-01-30T17:15:38;43.40;37.61;
61804;PMS7003;47725;47.912;7.356;2024-01-30T17:19:38;34.67;33.71;
61804;PMS7003;47725;47.912;7.356;2024-01-30T17:23:38;34.67;33.71;
61804;PMS7003;47725;47.912;7.356;2024-01-30T17:27:38;27.08;27.08;
61804;PMS7003;47725;47.912;7.356;2024-01-30T17:31:38;27.08;27.08;
61804;PMS7003;47725;47.912;7.356;2024-01-30T17:35:38;27.08;27.08;
61804;PMS7003;47725;47.912;7.356;2024-01-30T17:39:38;35.71;31.85;
61804;PMS7003;47725;47.912;7.356;2024-01-30T17:43:38;35.71;31.85;
61804;PMS7003;47725;47.912;7.356;2024-01-30T17:47:38;36.65;33.76;
61804;PMS7003;47725;47.912;7.356;2024-01-30T17:51:38;36.65;33.76;
61804;PMS7003;47725;47.912;7.356;2024-01-30T17:55:38;36.65;33.76;
61804;PMS7003;47725;47.912;7.356;2024-01-30T17:59:38;31.70;28.82;
61804;PMS7003;47725;47.912;7.356;2024-01-30T18:03:39;31.70;28.82;
61804;PMS7003;47725;47.912;7.356;2024-01-30T18:07:38;42.34;35.61;
61804;PMS7003;47725;47.912;7.356;2024-01-30T18:11:38;42.34;35.61;
61804;PMS7003;47725;47.912;7.356;2024-01-30T18:15:38;42.34;35.61;
61804;PMS7003;47725;47.912;7.356;2024-01-30T18:19:38;47.02;35.51;
61804;PMS7003;47725;47.912;7.356;2024-01-30T18:23:38;47.02;35.51;
61804;PMS7003;47725;47.912;7.356;2024-01-30T18:27:38;47.96;38.37;
61804;PMS7003;47725;47.912;7.356;2024-01-30T18:31:38;47.96;38.37;
61804;PMS7003;47725;47.912;7.356;2024-01-30T18:35:38;47.96;38.37;
61804;PMS7003;47725;47.912;7.356;2024-01-30T18:39:38;54.44;43.93;
61804;PMS7003;47725;47.912;7.356;2024-01-30T18:43:38;54.44;43.93;
61804;PMS7003;47725;47.912;7.356;2024-01-30T18:47:38;29.65;27.74;
61804;PMS7003;47725;47.912;7.356;2024-01-30T18:51:38;29.65;27.74;
61804;PMS7003;47725;47.912;7.356;2024-01-30T18:55:38;29.65;27.74;
61804;PMS7003;47725;47.912;7.356;2024-01-30T18:59:38;25.84;21.05;
61804;PMS7003;47725;47.912;7.356;2024-01-30T19:03:38;25.84;21.05;
61804;PMS7003;47725;47.912;7.356;2024-01-30T19:07:38;22.05;19.18;
61804;PMS7003;47725;47.912;7.356;2024-01-30T19:11:38;22.05;19.18;
61804;PMS7003;47725;47.912;7.356;2024-01-30T19:15:38;22.05;19.18;
61804;PMS7003;47725;47.912;7.356;2024-01-30T19:19:38;28.67;28.67;
61804;PMS7003;47725;47.912;7.356;2024-01-30T19:23:38;28.67;28.67;
61804;PMS7003;47725;47.912;7.356;2024-01-30T19:27:38;38.21;31.52;
61804;PMS7003;47725;47.912;7.356;2024-01-30T19:31:38;38.21;31.52;
61804;PMS7003;47725;47.912;7.356;2024-01-30T19:35:38;38.21;31.52;
61804;PMS7003;47725;47.912;7.356;2024-01-30T19:39:38;53.28;40.91;
61804;PMS7003;47725;47.912;7.356;2024-01-30T19:43:38;53.28;40.91;
61804;PMS7003;47725;47.912;7.356;2024-01-30T19:47:38;49.73;38.25;
61804;PMS7003;47725;47.912;7.356;2024-01-30T19:51:38;49.73;38.25;
61804;PMS7003;47725;47.912;7.356;2024-01-30T19:55:38;49.73;38.25;
61804;PMS7003;47725;47.912;7.356;2024-01-30T19:59:38;42.10;36.36;
61804;PMS7003;47725;47.912;7.356;2024-01-30T20:03:38;42.10;36.36;
61804;PMS7003;47725;47.912;7.356;2024-01-30T20:07:38;46.51;37.97;
61804;PMS7003;47725;47.912;7.356;2024-01-30T20:11:38;46.51;37.97;
61804;PMS7003;47725;47.912;7.356;2024-01-30T20:15:38;46.51;37.97;
61804;PMS7003;47725;47.912;7.356;2024-01-30T20:19:38;42.94;37.22;
61804;PMS7003;47725;47.912;7.356;2024-01-30T20:23:38;42.94;37.22;
61804;PMS7003;47725;47.912;7.356;2024-01-30T20:27:38;50.39;41.83;
61804;PMS7003;47725;47.912;7.356;2024-01-30T20:31:38;50.39;41.83;
61804;PMS7003;47725;47.912;7.356;2024-01-30T20:35:38;50.39;41.83;
61804;PMS7003;47725;47.912;7.356;2024-01-30T20:39:38;43.87;37.20;
61804;PMS7003;47725;47.912;7.356;2024-01-30T20:43:38;43.87;37.20;
61804;PMS7003;47725;47.912;7.356;2024-01-30T20:47:38;43.62;35.08;
61804;PMS7003;47725;47.912;7.356;2024-01-30T20:51:38;43.62;35.08;
61804;PMS7003;47725;47.912;7.356;2024-01-30T20:55:38;43.62;35.08;
61804;PMS7003;47725;47.912;7.356;2024-01-30T20:59:38;35.99;34.10;
61804;PMS7003;47725;47.912;7.356;2024-01-30T21:03:38;35.99;34.10;
61804;PMS7003;47725;47.912;7.356;2024-01-30T21:07:38;56.19;44.76;
61804;PMS7003;47725;47.912;7.356;2024-01-30T21:11:38;56.19;44.76;
61804;PMS7003;47725;47.912;7.356;2024-01-30T21:15:38;56.19;44.76;
61804;PMS7003;47725;47.912;7.356;2024-01-30T21:19:38;54.84;46.33;
61804;PMS7003;47725;47.912;7.356;2024-01-30T21:23:38;54.84;46.33;
61804;PMS7003;47725;47.912;7.356;2024-01-30T21:27:38;69.09;53.00;
61804;PMS7003;47725;47.912;7.356;2024-01-30T21:31:38;69.09;53.00;
61804;PMS7003;47725;47.912;7.356;2024-01-30T21:35:38;69.09;53.00;
61804;PMS7003;47725;47.912;7.356;2024-01-30T21:39:38;64.33;50.14;
61804;PMS7003;47725;47.912;7.356;2024-01-30T21:43:38;64.33;50.14;
61804;PMS7003;47725;47.912;7.356;2024-01-30T21:47:38;58.36;47.06;
61804;PMS7003;47725;47.912;7.356;2024-01-30T21:51:38;58.36;47.06;
61804;PMS7003;47725;47.912;7.356;2024-01-30T21:55:38;58.36;47.06;
61804;PMS7003;47725;47.912;7.356;2024-01-30T21:59:38;57.50;47.13;
61804;PMS7003;47725;47.912;7.356;2024-01-30T22:03:38;57.50;47.13;
61804;PMS7003;47725;47.912;7.356;2024-01-30T22:07:38;56.28;45.96;
61804;PMS7003;47725;47.912;7.356;2024-01-30T22:11:38;56.28;45.96;
61804;PMS7003;47725;47.912;7.356;2024-01-30T22:15:38;56.28;45.96;
61804;PMS7003;47725;47.912;7.356;2024-01-30T22:19:38;62.97;49.81;
61804;PMS7003;47725;47.912;7.356;2024-01-30T22:23:38;62.97;49.81;
61804;PMS7003;47725;47.912;7.356;2024-01-30T22:27:38;67.69;49.83;
61804;PMS7003;47725;47.912;7.356;2024-01-30T22:31:38;67.69;49.83;
61804;PMS7003;47725;47.912;7.356;2024-01-30T22:35:38;67.69;49.83;
61804;PMS7003;47725;47.912;7.356;2024-01-30T22:39:38;61.92;48.79;
61804;PMS7003;47725;47.912;7.356;2024-01-30T22:43:38;61.92;48.79;
61804;PMS7003;47725;47.912;7.356;2024-01-30T22:47:38;57.14;46.84;
61804;PMS7003;47725;47.912;7.356;2024-01-30T22:51:38;57.14;46.84;
61804;PMS7003;47725;47.912;7.356;2024-01-30T22:55:38;57.14;46.84;
61804;PMS7003;47725;47.912;7.356;2024-01-30T22:59:38;60.65;49.45;
61804;PMS7003;47725;47.912;7.356;2024-01-30T23:03:38;60.65;49.45;
61804;PMS7003;47725;47.912;7.356;2024-01-30T23:07:38;61.09;48.87;
61804;PMS7003;47725;47.912;7.356;2024-01-30T23:11:38;61.09;48.87;
61804;PMS7003;47725;47.912;7.356;2024-01-30T23:15:38;61.09;48.87;
61804;PMS7003;47725;47.912;7.356;2024-01-30T23:19:38;54.55;47.02;
61804;PMS7003;47725;47.912;7.356;2024-01-30T23:23:38;54.55;47.02;
61804;PMS7003;47725;47.912;7.356;2024-01-30T23:27:38;52.68;45.15;
61804;PMS7003;47725;47.912;7.356;2024-01-30T23:31:41;52.68;45.15;
61804;PMS7003;47725;47.912;7.356;2024-01-30T23:35:38;52.68;45.15;
61804;PMS7003;47725;47.912;7.356;2024-01-30T23:39:38;64.88;51.71;
61804;PMS7003;47725;47.912;7.356;2024-01-30T23:43:38;64.88;51.71;
61804;PMS7003;47725;47.912;7.356;2024-01-30T23:47:38;61.79;50.55;
61804;PMS7003;47725;47.912;7.356;2024-01-30T23:51:38;61.79;50.55;
61804;PMS7003;47725;47.912;7.356;2024-01-30T23:55:38;61.79;50.55;
61804;PMS7003;47725;47.912;7.356;2024-01-30T23:59:38;61.14;49.85;
